createdAt,value
2023-04-29T00:03:05.287Z,5.82
2023-04-29T00:08:06.307Z,1.90
2023-04-29T00:13:07.390Z,0.98
2023-04-29T00:18:09.145Z,1.00
2023-04-29T00:23:10.743Z,1.37
2023-04-29T00:28:11.627Z,0.98
2023-04-29T00:33:12.525Z,1.80
2023-04-29T00:38:13.646Z,3.22
2023-04-29T00:43:14.526Z,7.82
2023-04-29T00:48:15.557Z,1.60
2023-04-29T00:53:16.586Z,0.90
2023-04-29T00:58:19.267Z,7.32
2023-04-29T01:03:21.391Z,1.98
2023-04-29T01:10:20.317Z,3.20
2023-04-29T01:16:46.991Z,6.15
2023-04-29T01:21:49.232Z,1.37
2023-04-29T01:27:01.827Z,6.00
2023-04-29T01:32:29.018Z,0.93
2023-04-29T01:37:56.232Z,1.40
2023-04-29T01:43:02.433Z,3.72
2023-04-29T01:48:05.328Z,5.82
2023-04-29T01:53:07.170Z,1.98
2023-04-29T01:58:10.398Z,6.63
2023-04-29T02:03:30.208Z,1.70
2023-04-29T02:08:32.436Z,4.00
2023-04-29T02:13:34.890Z,2.85
2023-04-29T02:18:36.328Z,2.80
2023-04-29T02:23:39.341Z,2.85
2023-04-29T02:28:40.133Z,4.60
2023-04-29T02:33:41.449Z,2.08
2023-04-29T02:38:43.665Z,2.67
2023-04-29T02:43:44.476Z,3.67
2023-04-29T02:48:45.264Z,3.80
2023-04-29T02:53:46.678Z,2.80
2023-04-29T02:58:47.467Z,2.90
2023-04-29T03:03:48.567Z,4.93
2023-04-29T03:08:49.748Z,6.00
2023-04-29T03:13:52.400Z,3.70
2023-04-29T03:18:54.457Z,5.60
2023-04-29T03:23:55.443Z,6.40
2023-04-29T03:29:01.251Z,9.45
2023-04-29T03:34:02.181Z,5.10
2023-04-29T03:39:06.390Z,6.85
2023-04-29T03:44:07.407Z,9.75
2023-04-29T03:49:08.639Z,11.75
2023-04-29T03:54:09.662Z,15.38
2023-04-29T03:59:10.806Z,18.33
2023-04-29T04:04:12.736Z,21.65
2023-04-29T04:09:17.584Z,21.70
2023-04-29T04:14:18.788Z,18.75
2023-04-29T04:19:19.915Z,18.08
2023-04-29T04:24:22.431Z,23.52
2023-04-29T04:29:23.338Z,17.37
2023-04-29T04:34:49.634Z,21.65
2023-04-29T04:39:50.830Z,18.33
2023-04-29T04:44:53.308Z,25.05
2023-04-29T04:50:21.936Z,29.85
2023-04-29T04:55:24.003Z,28.08
2023-04-29T05:00:25.782Z,30.33
2023-04-29T05:05:26.800Z,30.50
2023-04-29T05:10:28.469Z,25.67
2023-04-29T05:15:30.622Z,26.23
2023-04-29T05:20:33.044Z,24.47
2023-04-29T05:25:35.343Z,23.90
2023-04-29T05:30:37.131Z,23.52
2023-04-29T05:35:39.054Z,22.70
2023-04-29T05:40:40.427Z,19.87
2023-04-29T05:48:18.477Z,17.85
2023-04-29T05:53:19.808Z,27.62
2023-04-29T05:58:22.036Z,20.43
2023-04-29T06:03:23.680Z,15.80
2023-04-29T06:08:32.814Z,18.50
2023-04-29T06:13:39.038Z,16.40
2023-04-29T06:18:40.752Z,11.38
2023-04-29T06:23:41.592Z,11.52
2023-04-29T06:28:49.989Z,11.93
2023-04-29T06:33:50.992Z,12.10
2023-04-29T06:38:52.557Z,12.30
2023-04-29T06:44:07.361Z,12.63
2023-04-29T06:49:36.728Z,10.77
2023-04-29T06:59:40.443Z,12.70
2023-04-29T07:04:41.348Z,13.25
2023-04-29T07:09:42.131Z,13.43
2023-04-29T07:14:42.942Z,14.98
2023-04-29T07:19:43.844Z,11.12
2023-04-29T07:24:44.966Z,11.88
2023-04-29T07:29:45.997Z,13.25
2023-04-29T07:34:46.908Z,13.45
2023-04-29T07:39:47.738Z,15.88
2023-04-29T07:44:48.583Z,14.93
2023-04-29T07:49:49.388Z,12.80
2023-04-29T07:54:51.093Z,15.88
2023-04-29T07:59:53.687Z,16.92
2023-04-29T08:04:55.928Z,14.03
2023-04-29T08:09:57.344Z,16.87
2023-04-29T08:14:58.083Z,15.90
2023-04-29T08:19:58.888Z,13.20
2023-04-29T08:25:00.186Z,15.45
2023-04-29T08:30:01.374Z,17.92
2023-04-29T08:35:02.358Z,18.00
2023-04-29T08:40:04.014Z,15.18
2023-04-29T08:45:06.596Z,17.42
2023-04-29T08:50:08.554Z,18.75
2023-04-29T08:55:09.392Z,19.60
2023-04-29T09:00:11.450Z,12.20
2023-04-29T09:05:12.698Z,11.80
2023-04-29T09:10:15.303Z,12.00
2023-04-29T09:15:16.088Z,12.45
2023-04-29T09:20:35.189Z,12.05
2023-04-29T09:25:36.365Z,13.73
2023-04-29T09:30:46.427Z,10.95
2023-04-29T09:35:47.955Z,9.60
2023-04-29T09:40:58.410Z,13.23
2023-04-29T09:46:01.308Z,8.27
2023-04-29T09:51:02.398Z,8.20
2023-04-29T09:56:04.861Z,9.93
2023-04-29T10:01:06.590Z,9.50
2023-04-29T10:06:08.060Z,8.07
2023-04-29T10:11:11.040Z,16.00
2023-04-29T10:16:34.527Z,12.60
2023-04-29T10:21:35.834Z,7.07
2023-04-29T10:26:38.448Z,8.60
2023-04-29T10:31:40.830Z,7.57
2023-04-29T10:36:41.767Z,8.43
2023-04-29T10:41:46.410Z,7.20
2023-04-29T10:46:47.205Z,7.40
2023-04-29T10:51:47.994Z,6.25
2023-04-29T10:56:53.596Z,7.47
2023-04-29T11:01:54.557Z,9.15
2023-04-29T11:06:58.595Z,7.57
2023-04-29T11:12:04.691Z,8.35
2023-04-29T11:17:23.570Z,7.00
2023-04-29T11:22:33.311Z,8.63
2023-04-29T11:27:39.529Z,11.88
2023-04-29T11:32:41.983Z,8.50
2023-04-29T11:37:44.848Z,29.07
2023-04-29T11:42:47.560Z,43.50
2023-04-29T11:47:49.150Z,23.08
2023-04-29T11:52:50.197Z,9.43
2023-04-29T11:57:51.588Z,8.27
2023-04-29T12:02:52.687Z,15.25
2023-04-29T12:07:56.448Z,15.45
2023-04-29T12:12:58.080Z,7.15
2023-04-29T12:18:00.922Z,9.60
2023-04-29T12:23:14.851Z,5.32
2023-04-29T12:28:16.227Z,6.45
2023-04-29T12:33:26.074Z,6.50
2023-04-29T12:38:30.268Z,4.80
2023-04-29T12:43:32.999Z,4.95
2023-04-29T12:48:37.737Z,11.12
2023-04-29T12:53:38.704Z,8.00
2023-04-29T12:58:39.792Z,5.15
2023-04-29T13:03:40.734Z,6.55
2023-04-29T13:08:41.748Z,4.82
2023-04-29T13:13:42.626Z,7.03
2023-04-29T13:18:55.597Z,9.43
2023-04-29T13:24:06.800Z,7.20
2023-04-29T13:29:07.672Z,5.60
2023-04-29T13:34:09.622Z,6.35
2023-04-29T13:39:10.627Z,12.45
2023-04-29T13:44:23.915Z,8.43
2023-04-29T13:49:54.752Z,12.40
2023-04-29T13:56:01.824Z,14.25
2023-04-29T14:06:34.019Z,14.18
2023-04-29T14:11:35.962Z,8.50
2023-04-29T14:16:36.779Z,12.15
2023-04-29T14:21:37.624Z,10.40
2023-04-29T14:26:38.400Z,14.20
2023-04-29T14:31:39.368Z,15.60
2023-04-29T14:36:40.589Z,19.10
2023-04-29T14:41:41.354Z,19.35
2023-04-29T14:46:42.363Z,19.05
2023-04-29T14:51:43.241Z,22.08
2023-04-29T14:56:44.016Z,23.48
2023-04-29T15:01:45.121Z,22.85
2023-04-29T15:06:46.409Z,22.37
2023-04-29T15:11:47.217Z,25.27
2023-04-29T15:16:48.249Z,30.80
2023-04-29T15:21:49.137Z,30.60
2023-04-29T15:26:51.376Z,29.35
2023-04-29T15:31:52.394Z,33.57
2023-04-29T15:36:55.455Z,36.95
2023-04-29T15:41:57.896Z,35.65
2023-04-29T15:46:59.156Z,40.10
2023-04-29T15:52:00.212Z,34.38
2023-04-29T15:57:04.578Z,35.75
2023-04-29T16:02:10.403Z,38.50
2023-04-29T16:07:11.470Z,34.80
2023-04-29T16:12:13.307Z,37.50
2023-04-29T16:17:14.202Z,40.30
2023-04-29T16:22:14.988Z,38.03
2023-04-29T16:27:16.365Z,40.45
2023-04-29T16:32:17.218Z,37.35
2023-04-29T16:37:18.117Z,39.00
2023-04-29T16:42:18.947Z,40.42
2023-04-29T16:47:22.752Z,37.83
2023-04-29T16:52:23.769Z,36.33
2023-04-29T16:57:25.730Z,30.95
2023-04-29T17:02:26.904Z,37.10
2023-04-29T17:07:28.302Z,39.22
2023-04-29T17:12:29.154Z,47.65
2023-04-29T17:17:30.300Z,46.45
2023-04-29T17:22:32.486Z,49.58
2023-04-29T17:27:33.973Z,49.65
2023-04-29T17:32:38.301Z,50.45
2023-04-29T17:37:39.915Z,53.28
2023-04-29T17:42:40.974Z,48.05
2023-04-29T17:47:41.785Z,51.58
2023-04-29T17:52:42.588Z,49.28
2023-04-29T17:57:43.675Z,44.42
2023-04-29T18:02:44.495Z,48.20
2023-04-29T18:07:45.526Z,43.87
2023-04-29T18:12:46.275Z,46.88
2023-04-29T18:17:47.699Z,43.60
2023-04-29T18:22:49.750Z,46.85
2023-04-29T18:27:51.499Z,45.45
2023-04-29T18:32:53.725Z,49.70
2023-04-29T18:37:54.769Z,47.33
2023-04-29T18:42:55.530Z,43.50
2023-04-29T18:47:56.356Z,53.30
2023-04-29T18:52:57.218Z,48.63
2023-04-29T18:57:58.015Z,51.72
2023-04-29T19:02:58.915Z,56.72
2023-04-29T19:07:59.958Z,54.33
2023-04-29T19:13:00.815Z,51.97
2023-04-29T19:18:01.666Z,50.80
2023-04-29T19:23:02.983Z,56.80
2023-04-29T19:28:04.012Z,57.08
2023-04-29T19:33:05.435Z,57.47
2023-04-29T19:38:06.476Z,55.33
2023-04-29T19:43:07.478Z,53.87
2023-04-29T19:48:08.349Z,61.63
2023-04-29T19:53:10.687Z,63.25
2023-04-29T19:58:11.456Z,58.63
2023-04-29T20:03:12.282Z,66.93
2023-04-29T20:08:15.962Z,63.80
2023-04-29T20:13:16.708Z,67.07
2023-04-29T20:18:17.524Z,59.92
2023-04-29T20:23:18.628Z,69.40
2023-04-29T20:28:19.679Z,71.80
2023-04-29T20:33:20.559Z,67.18
2023-04-29T20:38:22.618Z,68.90
2023-04-29T20:48:27.394Z,71.18
2023-04-29T20:53:28.202Z,62.77
2023-04-29T20:58:29.054Z,71.82
2023-04-29T21:03:32.839Z,76.20
2023-04-29T21:08:33.796Z,72.43
2023-04-29T21:13:34.683Z,72.05
2023-04-29T21:18:35.763Z,72.85
2023-04-29T21:23:37.381Z,68.37
2023-04-29T21:28:38.164Z,72.43
2023-04-29T21:33:39.084Z,67.87
2023-04-29T21:38:41.821Z,62.60
2023-04-29T21:43:42.630Z,66.05
2023-04-29T21:48:43.513Z,61.67
2023-04-29T21:53:45.027Z,57.65
2023-04-29T21:58:45.847Z,59.30
2023-04-29T22:03:46.621Z,58.25
2023-04-29T22:08:47.591Z,63.03
2023-04-29T22:13:48.500Z,61.95
2023-04-29T22:18:49.504Z,58.87
2023-04-29T22:23:50.553Z,53.50
2023-04-29T22:28:51.832Z,52.58
2023-04-29T22:33:52.855Z,56.25
2023-04-29T22:38:54.227Z,57.15
2023-04-29T22:43:57.984Z,55.65
2023-04-29T22:48:58.749Z,55.78
2023-04-29T22:53:59.535Z,55.47
2023-04-29T22:59:00.283Z,48.72
2023-04-29T23:04:01.638Z,55.12
2023-04-29T23:09:02.754Z,55.83
2023-04-29T23:14:03.546Z,55.45
2023-04-29T23:19:04.746Z,54.30
2023-04-29T23:24:05.603Z,64.45
2023-04-29T23:29:06.484Z,52.67
2023-04-29T23:34:07.395Z,56.47
2023-04-29T23:39:08.284Z,53.70
2023-04-29T23:44:09.022Z,56.35
2023-04-29T23:49:09.817Z,56.05
2023-04-29T23:54:10.565Z,54.45
2023-04-29T23:59:11.357Z,59.15
